sensor_id;sensor_type;location;lat;lon;timestamp;P1;durP1;ratioP1;P2;durP2;ratioP2
57345;SDS011;43181;50.974;18.244;2023-04-01T00:00:22;1.00;;;1.00;;
57345;SDS011;43181;50.974;18.244;2023-04-01T00:02:47;1.10;;;1.10;;
57345;SDS011;43181;50.974;18.244;2023-04-01T00:05:13;0.70;;;0.60;;
57345;SDS011;43181;50.974;18.244;2023-04-01T00:07:39;1.00;;;0.90;;
57345;SDS011;43181;50.974;18.244;2023-04-01T00:10:06;0.80;;;0.80;;
57345;SDS011;43181;50.974;18.244;2023-04-01T00:12:34;0.50;;;0.50;;
57345;SDS011;43181;50.974;18.244;2023-04-01T00:15:00;0.40;;;0.40;;
57345;SDS011;43181;50.974;18.244;2023-04-01T00:17:26;2.50;;;1.60;;
57345;SDS011;43181;50.974;18.244;2023-04-01T00:19:54;0.40;;;0.40;;
57345;SDS011;43181;50.974;18.244;2023-04-01T00:22:20;1.00;;;1.00;;
57345;SDS011;43181;50.974;18.244;2023-04-01T00:24:48;0.90;;;0.90;;
57345;SDS011;43181;50.974;18.244;2023-04-01T00:27:14;0.90;;;0.70;;
57345;SDS011;43181;50.974;18.244;2023-04-01T00:29:46;0.80;;;0.80;;
57345;SDS011;43181;50.974;18.244;2023-04-01T00:32:13;1.30;;;1.20;;
57345;SDS011;43181;50.974;18.244;2023-04-01T00:34:39;1.80;;;0.80;;
57345;SDS011;43181;50.974;18.244;2023-04-01T00:37:06;1.20;;;0.80;;
57345;SDS011;43181;50.974;18.244;2023-04-01T00:39:33;0.60;;;0.60;;
57345;SDS011;43181;50.974;18.244;2023-04-01T00:42:00;1.40;;;1.20;;
57345;SDS011;43181;50.974;18.244;2023-04-01T00:44:27;0.90;;;0.90;;
57345;SDS011;43181;50.974;18.244;2023-04-01T00:46:55;1.20;;;1.20;;
57345;SDS011;43181;50.974;18.244;2023-04-01T00:49:31;1.60;;;1.40;;
57345;SDS011;43181;50.974;18.244;2023-04-01T00:52:00;1.10;;;1.00;;
57345;SDS011;43181;50.974;18.244;2023-04-01T00:54:27;0.70;;;0.70;;
57345;SDS011;43181;50.974;18.244;2023-04-01T00:56:55;1.50;;;0.70;;
57345;SDS011;43181;50.974;18.244;2023-04-01T00:59:25;2.10;;;1.40;;
57345;SDS011;43181;50.974;18.244;2023-04-01T01:01:53;0.90;;;0.90;;
57345;SDS011;43181;50.974;18.244;2023-04-01T01:04:29;3.50;;;1.50;;
57345;SDS011;43181;50.974;18.244;2023-04-01T01:12:23;0.70;;;0.70;;
57345;SDS011;43181;50.974;18.244;2023-04-01T01:17:35;0.60;;;0.60;;
57345;SDS011;43181;50.974;18.244;2023-04-01T01:27:46;0.80;;;0.80;;
57345;SDS011;43181;50.974;18.244;2023-04-01T01:30:35;0.40;;;0.40;;
57345;SDS011;43181;50.974;18.244;2023-04-01T01:33:09;1.30;;;1.20;;
57345;SDS011;43181;50.974;18.244;2023-04-01T01:35:52;3.10;;;1.60;;
57345;SDS011;43181;50.974;18.244;2023-04-01T01:38:21;1.70;;;1.20;;
57345;SDS011;43181;50.974;18.244;2023-04-01T01:40:49;1.40;;;1.30;;
57345;SDS011;43181;50.974;18.244;2023-04-01T01:43:21;1.00;;;0.90;;
57345;SDS011;43181;50.974;18.244;2023-04-01T01:45:50;1.20;;;1.10;;
57345;SDS011;43181;50.974;18.244;2023-04-01T01:48:19;1.00;;;0.90;;
57345;SDS011;43181;50.974;18.244;2023-04-01T01:50:45;1.30;;;1.20;;
57345;SDS011;43181;50.974;18.244;2023-04-01T01:53:12;0.80;;;0.80;;
57345;SDS011;43181;50.974;18.244;2023-04-01T01:55:40;2.20;;;1.80;;
57345;SDS011;43181;50.974;18.244;2023-04-01T02:00:57;2.10;;;1.50;;
57345;SDS011;43181;50.974;18.244;2023-04-01T02:03:25;1.70;;;1.10;;
57345;SDS011;43181;50.974;18.244;2023-04-01T02:05:53;1.20;;;1.20;;
57345;SDS011;43181;50.974;18.244;2023-04-01T02:08:22;2.20;;;1.40;;
57345;SDS011;43181;50.974;18.244;2023-04-01T02:10:59;1.70;;;1.20;;
57345;SDS011;43181;50.974;18.244;2023-04-01T02:16:38;1.20;;;0.60;;
57345;SDS011;43181;50.974;18.244;2023-04-01T02:19:05;1.10;;;0.90;;
57345;SDS011;43181;50.974;18.244;2023-04-01T02:21:35;3.00;;;1.70;;
57345;SDS011;43181;50.974;18.244;2023-04-01T02:24:02;0.60;;;0.60;;
57345;SDS011;43181;50.974;18.244;2023-04-01T02:26:31;1.40;;;1.30;;
57345;SDS011;43181;50.974;18.244;2023-04-01T02:28:57;3.20;;;1.40;;
57345;SDS011;43181;50.974;18.244;2023-04-01T02:31:24;2.00;;;1.80;;
57345;SDS011;43181;50.974;18.244;2023-04-01T02:33:53;0.80;;;0.80;;
57345;SDS011;43181;50.974;18.244;2023-04-01T02:36:19;2.10;;;0.90;;
57345;SDS011;43181;50.974;18.244;2023-04-01T02:38:45;1.20;;;1.10;;
57345;SDS011;43181;50.974;18.244;2023-04-01T02:41:12;1.50;;;1.20;;
57345;SDS011;43181;50.974;18.244;2023-04-01T02:43:38;1.10;;;1.00;;
57345;SDS011;43181;50.974;18.244;2023-04-01T02:46:04;1.50;;;0.90;;
57345;SDS011;43181;50.974;18.244;2023-04-01T02:48:31;0.60;;;0.50;;
57345;SDS011;43181;50.974;18.244;2023-04-01T02:50:56;1.30;;;1.20;;
57345;SDS011;43181;50.974;18.244;2023-04-01T02:53:22;0.80;;;0.80;;
57345;SDS011;43181;50.974;18.244;2023-04-01T02:55:48;0.80;;;0.80;;
57345;SDS011;43181;50.974;18.244;2023-04-01T02:58:15;0.70;;;0.70;;
57345;SDS011;43181;50.974;18.244;2023-04-01T03:00:42;1.10;;;1.10;;
57345;SDS011;43181;50.974;18.244;2023-04-01T03:03:08;4.30;;;1.80;;
57345;SDS011;43181;50.974;18.244;2023-04-01T03:05:33;1.70;;;0.90;;
57345;SDS011;43181;50.974;18.244;2023-04-01T03:07:59;1.80;;;1.70;;
57345;SDS011;43181;50.974;18.244;2023-04-01T03:10:25;1.50;;;1.40;;
57345;SDS011;43181;50.974;18.244;2023-04-01T03:12:50;6.70;;;1.60;;
57345;SDS011;43181;50.974;18.244;2023-04-01T03:15:16;1.50;;;1.20;;
57345;SDS011;43181;50.974;18.244;2023-04-01T03:17:42;1.00;;;0.70;;
57345;SDS011;43181;50.974;18.244;2023-04-01T03:20:08;1.30;;;1.20;;
57345;SDS011;43181;50.974;18.244;2023-04-01T03:22:36;1.00;;;0.80;;
57345;SDS011;43181;50.974;18.244;2023-04-01T03:25:02;1.50;;;0.80;;
57345;SDS011;43181;50.974;18.244;2023-04-01T03:27:29;1.60;;;1.50;;
57345;SDS011;43181;50.974;18.244;2023-04-01T03:29:55;2.10;;;1.70;;
57345;SDS011;43181;50.974;18.244;2023-04-01T03:32:20;1.80;;;1.40;;
57345;SDS011;43181;50.974;18.244;2023-04-01T03:34:46;5.10;;;1.30;;
57345;SDS011;43181;50.974;18.244;2023-04-01T03:37:12;1.10;;;1.00;;
57345;SDS011;43181;50.974;18.244;2023-04-01T03:39:38;1.10;;;1.10;;
57345;SDS011;43181;50.974;18.244;2023-04-01T03:42:03;1.70;;;1.10;;
57345;SDS011;43181;50.974;18.244;2023-04-01T03:44:32;1.70;;;0.90;;
57345;SDS011;43181;50.974;18.244;2023-04-01T03:46:58;2.30;;;1.20;;
57345;SDS011;43181;50.974;18.244;2023-04-01T03:49:25;0.80;;;0.80;;
57345;SDS011;43181;50.974;18.244;2023-04-01T03:51:50;0.40;;;0.40;;
57345;SDS011;43181;50.974;18.244;2023-04-01T03:54:16;1.40;;;1.30;;
57345;SDS011;43181;50.974;18.244;2023-04-01T03:56:43;7.20;;;1.90;;
57345;SDS011;43181;50.974;18.244;2023-04-01T03:59:09;1.90;;;1.20;;
57345;SDS011;43181;50.974;18.244;2023-04-01T04:01:34;4.00;;;1.60;;
57345;SDS011;43181;50.974;18.244;2023-04-01T04:04:00;1.00;;;1.00;;
57345;SDS011;43181;50.974;18.244;2023-04-01T04:06:26;1.30;;;1.20;;
57345;SDS011;43181;50.974;18.244;2023-04-01T04:08:52;3.10;;;1.50;;
57345;SDS011;43181;50.974;18.244;2023-04-01T04:11:18;4.80;;;1.40;;
57345;SDS011;43181;50.974;18.244;2023-04-01T04:13:45;1.10;;;1.10;;
57345;SDS011;43181;50.974;18.244;2023-04-01T04:16:13;1.30;;;1.30;;
57345;SDS011;43181;50.974;18.244;2023-04-01T04:18:40;0.70;;;0.70;;
57345;SDS011;43181;50.974;18.244;2023-04-01T04:21:05;3.30;;;1.50;;
57345;SDS011;43181;50.974;18.244;2023-04-01T04:23:31;0.60;;;0.60;;
57345;SDS011;43181;50.974;18.244;2023-04-01T04:26:03;1.00;;;1.00;;
57345;SDS011;43181;50.974;18.244;2023-04-01T04:28:30;1.40;;;1.30;;
57345;SDS011;43181;50.974;18.244;2023-04-01T04:30:56;3.00;;;0.70;;
57345;SDS011;43181;50.974;18.244;2023-04-01T04:33:22;1.60;;;1.50;;
57345;SDS011;43181;50.974;18.244;2023-04-01T04:35:48;1.30;;;1.30;;
57345;SDS011;43181;50.974;18.244;2023-04-01T04:38:14;1.00;;;1.00;;
57345;SDS011;43181;50.974;18.244;2023-04-01T04:40:40;5.20;;;1.30;;
57345;SDS011;43181;50.974;18.244;2023-04-01T04:43:07;1.50;;;1.40;;
57345;SDS011;43181;50.974;18.244;2023-04-01T04:45:33;1.30;;;1.00;;
57345;SDS011;43181;50.974;18.244;2023-04-01T04:47:58;3.30;;;2.00;;
57345;SDS011;43181;50.974;18.244;2023-04-01T04:50:24;1.40;;;1.30;;
57345;SDS011;43181;50.974;18.244;2023-04-01T04:52:51;0.60;;;0.60;;
57345;SDS011;43181;50.974;18.244;2023-04-01T04:55:17;1.70;;;1.30;;
57345;SDS011;43181;50.974;18.244;2023-04-01T04:57:43;1.10;;;1.00;;
57345;SDS011;43181;50.974;18.244;2023-04-01T05:00:09;1.70;;;1.30;;
57345;SDS011;43181;50.974;18.244;2023-04-01T05:02:38;1.80;;;1.60;;
57345;SDS011;43181;50.974;18.244;2023-04-01T05:05:03;2.00;;;1.10;;
57345;SDS011;43181;50.974;18.244;2023-04-01T05:07:30;2.80;;;1.50;;
57345;SDS011;43181;50.974;18.244;2023-04-01T05:09:56;1.00;;;1.00;;
57345;SDS011;43181;50.974;18.244;2023-04-01T05:12:22;0.70;;;0.70;;
57345;SDS011;43181;50.974;18.244;2023-04-01T05:14:47;1.30;;;1.30;;
57345;SDS011;43181;50.974;18.244;2023-04-01T05:17:13;1.00;;;0.90;;
57345;SDS011;43181;50.974;18.244;2023-04-01T05:19:39;2.10;;;1.70;;
57345;SDS011;43181;50.974;18.244;2023-04-01T05:22:04;3.20;;;1.00;;
57345;SDS011;43181;50.974;18.244;2023-04-01T05:24:30;1.20;;;1.10;;
57345;SDS011;43181;50.974;18.244;2023-04-01T05:26:56;1.90;;;1.80;;
57345;SDS011;43181;50.974;18.244;2023-04-01T05:29:23;3.70;;;1.00;;
57345;SDS011;43181;50.974;18.244;2023-04-01T05:31:49;0.80;;;0.80;;
57345;SDS011;43181;50.974;18.244;2023-04-01T05:34:15;1.90;;;1.80;;
57345;SDS011;43181;50.974;18.244;2023-04-01T05:36:41;4.20;;;1.30;;
57345;SDS011;43181;50.974;18.244;2023-04-01T05:39:07;1.20;;;1.10;;
57345;SDS011;43181;50.974;18.244;2023-04-01T05:41:37;2.50;;;1.50;;
57345;SDS011;43181;50.974;18.244;2023-04-01T05:44:03;17.20;;;12.50;;
57345;SDS011;43181;50.974;18.244;2023-04-01T05:46:30;35.50;;;22.40;;
57345;SDS011;43181;50.974;18.244;2023-04-01T05:48:56;13.20;;;6.70;;
57345;SDS011;43181;50.974;18.244;2023-04-01T05:51:22;4.00;;;2.70;;
57345;SDS011;43181;50.974;18.244;2023-04-01T05:53:48;5.70;;;4.10;;
57345;SDS011;43181;50.974;18.244;2023-04-01T05:56:13;3.50;;;2.30;;
57345;SDS011;43181;50.974;18.244;2023-04-01T05:58:40;4.60;;;3.50;;
57345;SDS011;43181;50.974;18.244;2023-04-01T06:01:06;3.90;;;2.10;;
57345;SDS011;43181;50.974;18.244;2023-04-01T06:03:34;2.30;;;1.40;;
57345;SDS011;43181;50.974;18.244;2023-04-01T06:06:00;2.90;;;1.70;;
57345;SDS011;43181;50.974;18.244;2023-04-01T06:08:26;0.90;;;0.90;;
57345;SDS011;43181;50.974;18.244;2023-04-01T06:16:37;1.20;;;1.20;;
57345;SDS011;43181;50.974;18.244;2023-04-01T06:32:42;18.80;;;2.70;;
57345;SDS011;43181;50.974;18.244;2023-04-01T06:49:03;1.50;;;1.40;;
57345;SDS011;43181;50.974;18.244;2023-04-01T06:51:52;2.30;;;0.80;;
57345;SDS011;43181;50.974;18.244;2023-04-01T06:54:42;1.20;;;1.10;;
57345;SDS011;43181;50.974;18.244;2023-04-01T07:04:58;1.00;;;1.00;;
57345;SDS011;43181;50.974;18.244;2023-04-01T07:07:33;1.10;;;1.10;;
57345;SDS011;43181;50.974;18.244;2023-04-01T07:10:04;1.70;;;1.60;;
57345;SDS011;43181;50.974;18.244;2023-04-01T07:14:58;1.20;;;0.90;;
57345;SDS011;43181;50.974;18.244;2023-04-01T07:17:28;1.70;;;1.00;;
57345;SDS011;43181;50.974;18.244;2023-04-01T07:22:40;1.00;;;1.00;;
57345;SDS011;43181;50.974;18.244;2023-04-01T07:25:15;1.00;;;1.00;;
57345;SDS011;43181;50.974;18.244;2023-04-01T07:27:43;0.90;;;0.70;;
57345;SDS011;43181;50.974;18.244;2023-04-01T07:30:16;1.20;;;1.10;;
57345;SDS011;43181;50.974;18.244;2023-04-01T07:35:36;0.50;;;0.50;;
57345;SDS011;43181;50.974;18.244;2023-04-01T07:38:11;1.60;;;1.30;;
57345;SDS011;43181;50.974;18.244;2023-04-01T07:52:00;0.40;;;0.40;;
57345;SDS011;43181;50.974;18.244;2023-04-01T08:19:25;0.60;;;0.60;;
57345;SDS011;43181;50.974;18.244;2023-04-01T08:22:02;0.30;;;0.30;;
57345;SDS011;43181;50.974;18.244;2023-04-01T08:27:20;0.60;;;0.60;;
57345;SDS011;43181;50.974;18.244;2023-04-01T08:29:59;0.20;;;0.20;;
57345;SDS011;43181;50.974;18.244;2023-04-01T08:35:07;0.70;;;0.40;;
57345;SDS011;43181;50.974;18.244;2023-04-01T08:37:36;0.40;;;0.40;;
57345;SDS011;43181;50.974;18.244;2023-04-01T08:53:24;2.50;;;0.80;;
57345;SDS011;43181;50.974;18.244;2023-04-01T08:58:45;2.50;;;0.60;;
57345;SDS011;43181;50.974;18.244;2023-04-01T09:12:26;2.60;;;1.70;;
57345;SDS011;43181;50.974;18.244;2023-04-01T09:42:44;1.80;;;1.70;;
57345;SDS011;43181;50.974;18.244;2023-04-01T09:56:33;1.20;;;1.10;;
57345;SDS011;43181;50.974;18.244;2023-04-01T10:10:59;1.10;;;1.00;;
57345;SDS011;43181;50.974;18.244;2023-04-01T10:39:08;0.70;;;0.70;;
57345;SDS011;43181;50.974;18.244;2023-04-01T10:52:51;3.30;;;1.10;;
57345;SDS011;43181;50.974;18.244;2023-04-01T10:58:22;0.50;;;0.50;;
57345;SDS011;43181;50.974;18.244;2023-04-01T11:09:40;2.60;;;1.00;;
57345;SDS011;43181;50.974;18.244;2023-04-01T11:54:25;1.40;;;1.10;;
57345;SDS011;43181;50.974;18.244;2023-04-01T12:05:19;2.30;;;1.40;;
57345;SDS011;43181;50.974;18.244;2023-04-01T12:10:51;1.90;;;1.10;;
57345;SDS011;43181;50.974;18.244;2023-04-01T12:13:35;0.50;;;0.50;;
57345;SDS011;43181;50.974;18.244;2023-04-01T12:16:29;1.50;;;1.40;;
57345;SDS011;43181;50.974;18.244;2023-04-01T12:19:24;1.60;;;1.00;;
57345;SDS011;43181;50.974;18.244;2023-04-01T12:24:52;1.70;;;1.60;;
57345;SDS011;43181;50.974;18.244;2023-04-01T12:36:06;0.90;;;0.90;;
57345;SDS011;43181;50.974;18.244;2023-04-01T12:44:16;5.40;;;1.70;;
57345;SDS011;43181;50.974;18.244;2023-04-01T12:47:19;4.60;;;2.00;;
57345;SDS011;43181;50.974;18.244;2023-04-01T12:50:16;4.10;;;1.00;;
57345;SDS011;43181;50.974;18.244;2023-04-01T12:55:42;1.60;;;1.30;;
57345;SDS011;43181;50.974;18.244;2023-04-01T13:03:48;1.60;;;1.30;;
57345;SDS011;43181;50.974;18.244;2023-04-01T13:06:38;1.80;;;1.60;;
57345;SDS011;43181;50.974;18.244;2023-04-01T13:20:07;4.10;;;2.20;;
57345;SDS011;43181;50.974;18.244;2023-04-01T13:27:48;5.00;;;1.80;;
57345;SDS011;43181;50.974;18.244;2023-04-01T13:38:31;4.10;;;1.40;;
57345;SDS011;43181;50.974;18.244;2023-04-01T13:46:59;2.30;;;1.50;;
57345;SDS011;43181;50.974;18.244;2023-04-01T13:49:57;1.00;;;0.50;;
57345;SDS011;43181;50.974;18.244;2023-04-01T14:04:00;1.10;;;1.00;;
57345;SDS011;43181;50.974;18.244;2023-04-01T14:09:30;2.40;;;1.60;;
57345;SDS011;43181;50.974;18.244;2023-04-01T14:12:09;1.70;;;1.50;;
57345;SDS011;43181;50.974;18.244;2023-04-01T14:47:48;0.20;;;0.20;;
57345;SDS011;43181;50.974;18.244;2023-04-01T14:50:21;0.40;;;0.40;;
57345;SDS011;43181;50.974;18.244;2023-04-01T14:55:27;0.40;;;0.40;;
57345;SDS011;43181;50.974;18.244;2023-04-01T14:58:18;1.00;;;0.90;;
57345;SDS011;43181;50.974;18.244;2023-04-01T15:08:57;0.20;;;0.20;;
57345;SDS011;43181;50.974;18.244;2023-04-01T15:14:30;0.30;;;0.30;;
57345;SDS011;43181;50.974;18.244;2023-04-01T15:36:49;4.60;;;1.10;;
57345;SDS011;43181;50.974;18.244;2023-04-01T15:42:26;1.10;;;1.10;;
57345;SDS011;43181;50.974;18.244;2023-04-01T15:48:01;2.40;;;2.00;;
57345;SDS011;43181;50.974;18.244;2023-04-01T15:50:37;3.20;;;2.90;;
57345;SDS011;43181;50.974;18.244;2023-04-01T15:53:37;1.60;;;1.50;;
57345;SDS011;43181;50.974;18.244;2023-04-01T15:58:48;9.40;;;5.50;;
57345;SDS011;43181;50.974;18.244;2023-04-01T16:22:32;2.70;;;2.50;;
57345;SDS011;43181;50.974;18.244;2023-04-01T16:29:53;2.30;;;1.90;;
57345;SDS011;43181;50.974;18.244;2023-04-01T16:35:28;5.50;;;2.40;;
57345;SDS011;43181;50.974;18.244;2023-04-01T16:38:14;5.00;;;2.90;;
57345;SDS011;43181;50.974;18.244;2023-04-01T16:48:59;2.20;;;2.10;;
57345;SDS011;43181;50.974;18.244;2023-04-01T16:51:37;5.70;;;1.60;;
57345;SDS011;43181;50.974;18.244;2023-04-01T16:54:10;2.20;;;1.80;;
57345;SDS011;43181;50.974;18.244;2023-04-01T16:56:45;1.60;;;1.30;;
57345;SDS011;43181;50.974;18.244;2023-04-01T16:59:17;0.80;;;0.80;;
57345;SDS011;43181;50.974;18.244;2023-04-01T17:04:47;1.50;;;0.70;;
57345;SDS011;43181;50.974;18.244;2023-04-01T17:07:35;3.40;;;2.10;;
57345;SDS011;43181;50.974;18.244;2023-04-01T17:15:20;6.10;;;2.50;;
57345;SDS011;43181;50.974;18.244;2023-04-01T17:20:59;1.30;;;1.20;;
57345;SDS011;43181;50.974;18.244;2023-04-01T17:23:37;13.00;;;5.10;;
57345;SDS011;43181;50.974;18.244;2023-04-01T17:26:17;3.30;;;3.00;;
57345;SDS011;43181;50.974;18.244;2023-04-01T17:29:06;3.30;;;2.80;;
57345;SDS011;43181;50.974;18.244;2023-04-01T17:31:41;1.60;;;1.50;;
57345;SDS011;43181;50.974;18.244;2023-04-01T17:42:19;5.00;;;3.50;;
57345;SDS011;43181;50.974;18.244;2023-04-01T17:58:44;7.70;;;4.10;;
57345;SDS011;43181;50.974;18.244;2023-04-01T18:04:06;10.50;;;4.60;;
57345;SDS011;43181;50.974;18.244;2023-04-01T18:11:39;3.40;;;2.80;;
57345;SDS011;43181;50.974;18.244;2023-04-01T18:22:23;6.70;;;3.60;;
57345;SDS011;43181;50.974;18.244;2023-04-01T18:27:58;5.80;;;5.20;;
57345;SDS011;43181;50.974;18.244;2023-04-01T18:30:28;7.00;;;3.60;;
57345;SDS011;43181;50.974;18.244;2023-04-01T18:33:02;9.00;;;6.00;;
57345;SDS011;43181;50.974;18.244;2023-04-01T18:35:46;5.20;;;4.30;;
57345;SDS011;43181;50.974;18.244;2023-04-01T18:38:31;6.90;;;3.70;;
57345;SDS011;43181;50.974;18.244;2023-04-01T18:41:08;4.10;;;3.70;;
57345;SDS011;43181;50.974;18.244;2023-04-01T18:44:10;5.30;;;3.20;;
57345;SDS011;43181;50.974;18.244;2023-04-01T18:52:26;3.80;;;3.30;;
57345;SDS011;43181;50.974;18.244;2023-04-01T18:58:10;9.00;;;6.00;;
57345;SDS011;43181;50.974;18.244;2023-04-01T19:03:48;5.70;;;3.40;;
57345;SDS011;43181;50.974;18.244;2023-04-01T19:06:32;4.30;;;3.60;;
57345;SDS011;43181;50.974;18.244;2023-04-01T19:09:22;7.20;;;4.50;;
57345;SDS011;43181;50.974;18.244;2023-04-01T19:12:16;6.60;;;3.60;;
57345;SDS011;43181;50.974;18.244;2023-04-01T19:23:02;19.00;;;5.50;;
57345;SDS011;43181;50.974;18.244;2023-04-01T19:25:55;6.40;;;4.70;;
57345;SDS011;43181;50.974;18.244;2023-04-01T19:32:01;7.90;;;5.40;;
57345;SDS011;43181;50.974;18.244;2023-04-01T19:34:48;14.30;;;3.90;;
57345;SDS011;43181;50.974;18.244;2023-04-01T19:37:31;6.90;;;5.50;;
57345;SDS011;43181;50.974;18.244;2023-04-01T19:42:50;6.60;;;5.20;;
57345;SDS011;43181;50.974;18.244;2023-04-01T19:45:51;28.20;;;11.80;;
57345;SDS011;43181;50.974;18.244;2023-04-01T19:51:16;4.70;;;4.00;;
57345;SDS011;43181;50.974;18.244;2023-04-01T19:54:03;4.80;;;4.20;;
57345;SDS011;43181;50.974;18.244;2023-04-01T19:56:47;7.30;;;4.50;;
57345;SDS011;43181;50.974;18.244;2023-04-01T20:12:46;7.40;;;4.40;;
57345;SDS011;43181;50.974;18.244;2023-04-01T20:15:41;4.60;;;3.00;;
57345;SDS011;43181;50.974;18.244;2023-04-01T20:18:13;9.30;;;3.80;;
57345;SDS011;43181;50.974;18.244;2023-04-01T20:23:21;2.20;;;2.00;;
57345;SDS011;43181;50.974;18.244;2023-04-01T20:26:06;5.60;;;2.60;;
57345;SDS011;43181;50.974;18.244;2023-04-01T20:28:44;6.90;;;3.30;;
57345;SDS011;43181;50.974;18.244;2023-04-01T20:31:24;3.90;;;3.40;;
57345;SDS011;43181;50.974;18.244;2023-04-01T20:33:57;4.30;;;2.20;;
57345;SDS011;43181;50.974;18.244;2023-04-01T20:36:36;6.20;;;3.90;;
57345;SDS011;43181;50.974;18.244;2023-04-01T20:39:19;13.50;;;4.20;;
57345;SDS011;43181;50.974;18.244;2023-04-01T20:50:35;3.80;;;3.50;;
57345;SDS011;43181;50.974;18.244;2023-04-01T21:23:04;3.80;;;3.00;;
57345;SDS011;43181;50.974;18.244;2023-04-01T21:31:04;11.30;;;4.70;;
57345;SDS011;43181;50.974;18.244;2023-04-01T21:37:16;3.30;;;3.10;;
57345;SDS011;43181;50.974;18.244;2023-04-01T21:42:25;2.60;;;2.40;;
57345;SDS011;43181;50.974;18.244;2023-04-01T21:45:09;4.30;;;2.90;;
57345;SDS011;43181;50.974;18.244;2023-04-01T22:00:14;8.50;;;3.60;;
57345;SDS011;43181;50.974;18.244;2023-04-01T22:16:16;11.40;;;4.00;;
57345;SDS011;43181;50.974;18.244;2023-04-01T22:19:16;5.70;;;3.80;;
57345;SDS011;43181;50.974;18.244;2023-04-01T22:27:42;5.90;;;2.90;;
57345;SDS011;43181;50.974;18.244;2023-04-01T22:32:52;3.70;;;3.40;;
57345;SDS011;43181;50.974;18.244;2023-04-01T22:35:59;5.60;;;4.80;;
57345;SDS011;43181;50.974;18.244;2023-04-01T22:38:47;4.40;;;3.50;;
57345;SDS011;43181;50.974;18.244;2023-04-01T22:41:55;8.80;;;3.60;;
57345;SDS011;43181;50.974;18.244;2023-04-01T22:44:19;5.00;;;4.00;;
57345;SDS011;43181;50.974;18.244;2023-04-01T22:46:59;6.90;;;4.40;;
57345;SDS011;43181;50.974;18.244;2023-04-01T22:49:35;7.80;;;3.90;;
57345;SDS011;43181;50.974;18.244;2023-04-01T22:58:30;3.20;;;2.90;;
57345;SDS011;43181;50.974;18.244;2023-04-01T23:00:59;2.60;;;2.00;;
57345;SDS011;43181;50.974;18.244;2023-04-01T23:03:38;4.70;;;4.30;;
57345;SDS011;43181;50.974;18.244;2023-04-01T23:06:06;4.90;;;2.90;;
57345;SDS011;43181;50.974;18.244;2023-04-01T23:11:21;4.10;;;2.20;;
57345;SDS011;43181;50.974;18.244;2023-04-01T23:13:55;2.40;;;2.30;;
57345;SDS011;43181;50.974;18.244;2023-04-01T23:16:38;8.80;;;4.20;;
57345;SDS011;43181;50.974;18.244;2023-04-01T23:19:10;5.90;;;2.80;;
57345;SDS011;43181;50.974;18.244;2023-04-01T23:24:15;2.10;;;2.00;;
57345;SDS011;43181;50.974;18.244;2023-04-01T23:26:52;3.20;;;2.80;;
57345;SDS011;43181;50.974;18.244;2023-04-01T23:29:21;3.50;;;2.10;;
57345;SDS011;43181;50.974;18.244;2023-04-01T23:31:49;3.40;;;2.10;;
57345;SDS011;43181;50.974;18.244;2023-04-01T23:34:24;4.00;;;2.60;;
57345;SDS011;43181;50.974;18.244;2023-04-01T23:37:17;3.10;;;2.40;;
57345;SDS011;43181;50.974;18.244;2023-04-01T23:39:48;4.10;;;3.20;;
57345;SDS011;43181;50.974;18.244;2023-04-01T23:44:50;7.30;;;4.60;;
57345;SDS011;43181;50.974;18.244;2023-04-01T23:47:22;6.80;;;3.70;;
57345;SDS011;43181;50.974;18.244;2023-04-01T23:52:47;5.10;;;4.00;;
57345;SDS011;43181;50.974;18.244;2023-04-01T23:55:18;7.10;;;3.10;;
